sensor_id;sensor_type;location;lat;lon;timestamp;P1;durP1;ratioP1;P2;durP2;ratioP2
1262;SDS011;62267;50.112;8.704;2022-08-19T06:09:05;13.00;;;11.63;;
1262;SDS011;62267;50.112;8.704;2022-08-19T06:11:53;13.37;;;12.07;;
1262;SDS011;62267;50.112;8.704;2022-08-19T06:31:33;11.73;;;10.53;;
1262;SDS011;62267;50.112;8.704;2022-08-19T06:34:19;13.40;;;12.10;;
1262;SDS011;62267;50.112;8.704;2022-08-19T06:40:16;12.30;;;11.03;;
1262;SDS011;62267;50.112;8.704;2022-08-19T06:43:02;11.53;;;10.47;;
1262;SDS011;62267;50.112;8.704;2022-08-19T06:45:53;11.53;;;10.47;;
1262;SDS011;62267;50.112;8.704;2022-08-19T06:48:40;11.83;;;10.63;;
1262;SDS011;62267;50.112;8.704;2022-08-19T06:51:29;12.70;;;10.87;;
1262;SDS011;62267;50.112;8.704;2022-08-19T06:54:22;11.20;;;10.00;;
1262;SDS011;62267;50.112;8.704;2022-08-19T06:57:14;11.90;;;9.97;;
1262;SDS011;62267;50.112;8.704;2022-08-19T07:00:01;12.40;;;9.53;;
1262;SDS011;62267;50.112;8.704;2022-08-19T07:02:46;10.37;;;9.10;;
1262;SDS011;62267;50.112;8.704;2022-08-19T07:05:43;12.30;;;9.63;;
1262;SDS011;62267;50.112;8.704;2022-08-19T07:08:30;14.07;;;10.10;;
1262;SDS011;62267;50.112;8.704;2022-08-19T07:11:17;14.07;;;10.10;;
1262;SDS011;62267;50.112;8.704;2022-08-19T07:14:03;11.27;;;9.70;;
1262;SDS011;62267;50.112;8.704;2022-08-19T07:17:03;10.63;;;9.57;;
1262;SDS011;62267;50.112;8.704;2022-08-19T07:19:50;11.10;;;10.10;;
1262;SDS011;62267;50.112;8.704;2022-08-19T07:22:38;12.53;;;9.57;;
1262;SDS011;62267;50.112;8.704;2022-08-19T07:25:24;9.60;;;8.80;;
1262;SDS011;62267;50.112;8.704;2022-08-19T07:28:17;10.63;;;9.53;;
1262;SDS011;62267;50.112;8.704;2022-08-19T07:31:16;9.97;;;8.97;;
1262;SDS011;62267;50.112;8.704;2022-08-19T07:34:08;9.70;;;8.80;;
1262;SDS011;62267;50.112;8.704;2022-08-19T07:36:55;9.87;;;8.97;;
1262;SDS011;62267;50.112;8.704;2022-08-19T07:39:41;11.37;;;9.40;;
1262;SDS011;62267;50.112;8.704;2022-08-19T07:42:27;8.77;;;7.97;;
1262;SDS011;62267;50.112;8.704;2022-08-19T07:45:14;9.83;;;8.83;;
1262;SDS011;62267;50.112;8.704;2022-08-19T07:48:01;8.90;;;8.10;;
1262;SDS011;62267;50.112;8.704;2022-08-19T07:50:47;12.87;;;8.60;;
1262;SDS011;62267;50.112;8.704;2022-08-19T07:53:34;10.10;;;9.10;;
1262;SDS011;62267;50.112;8.704;2022-08-19T07:56:23;9.53;;;8.63;;
1262;SDS011;62267;50.112;8.704;2022-08-19T07:59:09;8.80;;;8.00;;
1262;SDS011;62267;50.112;8.704;2022-08-19T08:01:57;9.07;;;8.23;;
1262;SDS011;62267;50.112;8.704;2022-08-19T08:04:45;8.83;;;8.03;;
1262;SDS011;62267;50.112;8.704;2022-08-19T08:08:00;8.13;;;7.43;;
1262;SDS011;62267;50.112;8.704;2022-08-19T08:11:12;8.90;;;7.63;;
1262;SDS011;62267;50.112;8.704;2022-08-19T08:13:59;8.73;;;7.93;;
1262;SDS011;62267;50.112;8.704;2022-08-19T08:16:49;7.63;;;6.93;;
1262;SDS011;62267;50.112;8.704;2022-08-19T08:19:35;7.70;;;6.90;;
1262;SDS011;62267;50.112;8.704;2022-08-19T08:22:22;8.13;;;7.33;;
1262;SDS011;62267;50.112;8.704;2022-08-19T08:25:27;7.50;;;6.77;;
1262;SDS011;62267;50.112;8.704;2022-08-19T08:28:17;8.17;;;7.30;;
1262;SDS011;62267;50.112;8.704;2022-08-19T08:31:02;7.80;;;7.20;;
1262;SDS011;62267;50.112;8.704;2022-08-19T08:33:53;7.70;;;6.90;;
1262;SDS011;62267;50.112;8.704;2022-08-19T08:36:43;8.63;;;7.80;;
1262;SDS011;62267;50.112;8.704;2022-08-19T08:39:29;11.00;;;10.07;;
1262;SDS011;62267;50.112;8.704;2022-08-19T08:42:24;22.47;;;20.00;;
1262;SDS011;62267;50.112;8.704;2022-08-19T08:45:13;6.70;;;6.10;;
1262;SDS011;62267;50.112;8.704;2022-08-19T08:48:04;7.03;;;6.43;;
1262;SDS011;62267;50.112;8.704;2022-08-19T08:51:16;7.90;;;6.70;;
1262;SDS011;62267;50.112;8.704;2022-08-19T08:54:05;8.07;;;7.27;;
1262;SDS011;62267;50.112;8.704;2022-08-19T08:56:53;14.40;;;7.57;;
1262;SDS011;62267;50.112;8.704;2022-08-19T08:59:40;8.57;;;7.73;;
1262;SDS011;62267;50.112;8.704;2022-08-19T09:02:29;7.90;;;7.10;;
1262;SDS011;62267;50.112;8.704;2022-08-19T09:05:16;6.73;;;6.23;;
1262;SDS011;62267;50.112;8.704;2022-08-19T09:11:13;8.70;;;7.90;;
1262;SDS011;62267;50.112;8.704;2022-08-19T09:14:34;7.93;;;7.13;;
1262;SDS011;62267;50.112;8.704;2022-08-19T09:17:38;7.20;;;6.60;;
1262;SDS011;62267;50.112;8.704;2022-08-19T09:20:24;7.53;;;6.80;;
1262;SDS011;62267;50.112;8.704;2022-08-19T09:23:10;8.20;;;7.43;;
1262;SDS011;62267;50.112;8.704;2022-08-19T09:25:56;9.23;;;8.40;;
1262;SDS011;62267;50.112;8.704;2022-08-19T09:28:43;9.33;;;8.23;;
1262;SDS011;62267;50.112;8.704;2022-08-19T09:31:32;8.50;;;7.70;;
1262;SDS011;62267;50.112;8.704;2022-08-19T09:34:18;8.60;;;7.80;;
1262;SDS011;62267;50.112;8.704;2022-08-19T09:37:06;7.53;;;6.70;;
1262;SDS011;62267;50.112;8.704;2022-08-19T09:39:56;8.97;;;7.30;;
1262;SDS011;62267;50.112;8.704;2022-08-19T09:42:43;8.30;;;7.67;;
1262;SDS011;62267;50.112;8.704;2022-08-19T09:45:34;9.47;;;8.67;;
1262;SDS011;62267;50.112;8.704;2022-08-19T09:48:20;9.50;;;8.70;;
1262;SDS011;62267;50.112;8.704;2022-08-19T09:51:08;10.83;;;9.93;;
1262;SDS011;62267;50.112;8.704;2022-08-19T09:53:58;12.90;;;11.63;;
1262;SDS011;62267;50.112;8.704;2022-08-19T09:56:48;9.00;;;8.20;;
1262;SDS011;62267;50.112;8.704;2022-08-19T09:59:34;9.03;;;8.23;;
1262;SDS011;62267;50.112;8.704;2022-08-19T10:02:20;8.27;;;7.57;;
1262;SDS011;62267;50.112;8.704;2022-08-19T10:05:07;9.10;;;8.40;;
1262;SDS011;62267;50.112;8.704;2022-08-19T10:08:15;9.10;;;8.30;;
1262;SDS011;62267;50.112;8.704;2022-08-19T10:11:02;9.70;;;8.90;;
1262;SDS011;62267;50.112;8.704;2022-08-19T10:14:08;11.00;;;9.73;;
1262;SDS011;62267;50.112;8.704;2022-08-19T10:16:54;10.07;;;8.80;;
1262;SDS011;62267;50.112;8.704;2022-08-19T10:19:43;9.43;;;8.63;;
1262;SDS011;62267;50.112;8.704;2022-08-19T10:22:39;10.23;;;8.70;;
1262;SDS011;62267;50.112;8.704;2022-08-19T10:25:26;9.70;;;8.90;;
1262;SDS011;62267;50.112;8.704;2022-08-19T10:28:11;10.20;;;9.30;;
1262;SDS011;62267;50.112;8.704;2022-08-19T10:30:57;11.50;;;10.50;;
1262;SDS011;62267;50.112;8.704;2022-08-19T10:33:44;10.63;;;9.73;;
1262;SDS011;62267;50.112;8.704;2022-08-19T10:36:38;10.47;;;9.47;;
1262;SDS011;62267;50.112;8.704;2022-08-19T10:39:40;10.50;;;9.50;;
1262;SDS011;62267;50.112;8.704;2022-08-19T10:42:27;9.43;;;8.53;;
1262;SDS011;62267;50.112;8.704;2022-08-19T10:45:13;9.90;;;9.10;;
1262;SDS011;62267;50.112;8.704;2022-08-19T10:47:59;11.23;;;10.33;;
1262;SDS011;62267;50.112;8.704;2022-08-19T10:50:46;12.80;;;11.50;;
1262;SDS011;62267;50.112;8.704;2022-08-19T10:54:06;12.60;;;11.57;;
1262;SDS011;62267;50.112;8.704;2022-08-19T10:56:56;13.23;;;11.93;;
1262;SDS011;62267;50.112;8.704;2022-08-19T10:59:42;13.10;;;11.90;;
1262;SDS011;62267;50.112;8.704;2022-08-19T11:02:28;12.73;;;11.07;;
1262;SDS011;62267;50.112;8.704;2022-08-19T11:05:14;11.77;;;10.80;;
1262;SDS011;62267;50.112;8.704;2022-08-19T11:08:00;11.00;;;10.00;;
1262;SDS011;62267;50.112;8.704;2022-08-19T11:11:05;12.40;;;10.80;;
1262;SDS011;62267;50.112;8.704;2022-08-19T11:13:51;12.50;;;11.20;;
1262;SDS011;62267;50.112;8.704;2022-08-19T11:16:37;12.57;;;11.43;;
1262;SDS011;62267;50.112;8.704;2022-08-19T11:19:27;13.00;;;11.90;;
1262;SDS011;62267;50.112;8.704;2022-08-19T11:22:12;14.53;;;13.03;;
1262;SDS011;62267;50.112;8.704;2022-08-19T11:25:03;12.17;;;10.90;;
1262;SDS011;62267;50.112;8.704;2022-08-19T11:27:48;11.47;;;10.57;;
1262;SDS011;62267;50.112;8.704;2022-08-19T11:30:37;12.83;;;11.63;;
1262;SDS011;62267;50.112;8.704;2022-08-19T11:33:23;13.87;;;12.57;;
1262;SDS011;62267;50.112;8.704;2022-08-19T11:36:10;14.90;;;13.50;;
1262;SDS011;62267;50.112;8.704;2022-08-19T11:38:59;14.63;;;12.97;;
1262;SDS011;62267;50.112;8.704;2022-08-19T11:41:44;15.47;;;13.93;;
1262;SDS011;62267;50.112;8.704;2022-08-19T11:44:30;14.17;;;12.87;;
1262;SDS011;62267;50.112;8.704;2022-08-19T11:47:20;13.80;;;12.63;;
1262;SDS011;62267;50.112;8.704;2022-08-19T11:50:06;14.87;;;13.40;;
1262;SDS011;62267;50.112;8.704;2022-08-19T11:52:56;16.67;;;13.50;;
1262;SDS011;62267;50.112;8.704;2022-08-19T11:55:43;13.80;;;12.50;;
1262;SDS011;62267;50.112;8.704;2022-08-19T11:58:30;13.63;;;12.40;;
1262;SDS011;62267;50.112;8.704;2022-08-19T12:01:17;15.17;;;13.70;;
1262;SDS011;62267;50.112;8.704;2022-08-19T12:04:03;15.57;;;14.17;;
1262;SDS011;62267;50.112;8.704;2022-08-19T12:06:50;15.63;;;14.23;;
1262;SDS011;62267;50.112;8.704;2022-08-19T12:09:37;14.03;;;12.73;;
1262;SDS011;62267;50.112;8.704;2022-08-19T12:12:26;15.47;;;13.97;;
1262;SDS011;62267;50.112;8.704;2022-08-19T12:15:12;14.90;;;13.30;;
1262;SDS011;62267;50.112;8.704;2022-08-19T12:18:00;13.10;;;12.00;;
1262;SDS011;62267;50.112;8.704;2022-08-19T12:20:46;13.07;;;11.80;;
1262;SDS011;62267;50.112;8.704;2022-08-19T12:23:32;13.80;;;12.57;;
1262;SDS011;62267;50.112;8.704;2022-08-19T12:26:18;14.00;;;12.80;;
1262;SDS011;62267;50.112;8.704;2022-08-19T12:29:04;17.27;;;11.83;;
1262;SDS011;62267;50.112;8.704;2022-08-19T12:31:50;14.10;;;12.80;;
1262;SDS011;62267;50.112;8.704;2022-08-19T12:34:36;13.20;;;12.10;;
1262;SDS011;62267;50.112;8.704;2022-08-19T12:37:22;13.33;;;12.13;;
1262;SDS011;62267;50.112;8.704;2022-08-19T12:40:10;12.43;;;11.40;;
1262;SDS011;62267;50.112;8.704;2022-08-19T12:42:59;13.03;;;11.93;;
1262;SDS011;62267;50.112;8.704;2022-08-19T12:45:45;12.90;;;11.80;;
1262;SDS011;62267;50.112;8.704;2022-08-19T12:48:31;14.30;;;12.90;;
1262;SDS011;62267;50.112;8.704;2022-08-19T12:51:20;14.00;;;12.80;;
1262;SDS011;62267;50.112;8.704;2022-08-19T12:54:07;12.77;;;11.70;;
1262;SDS011;62267;50.112;8.704;2022-08-19T12:56:53;13.13;;;11.73;;
1262;SDS011;62267;50.112;8.704;2022-08-19T12:59:38;12.93;;;11.83;;
1262;SDS011;62267;50.112;8.704;2022-08-19T13:02:25;12.23;;;11.13;;
1262;SDS011;62267;50.112;8.704;2022-08-19T13:05:13;15.33;;;12.80;;
1262;SDS011;62267;50.112;8.704;2022-08-19T13:08:00;14.50;;;13.10;;
1262;SDS011;62267;50.112;8.704;2022-08-19T13:10:46;12.83;;;11.73;;
1262;SDS011;62267;50.112;8.704;2022-08-19T13:13:31;13.37;;;12.07;;
1262;SDS011;62267;50.112;8.704;2022-08-19T13:16:17;12.17;;;11.17;;
1262;SDS011;62267;50.112;8.704;2022-08-19T13:19:04;10.87;;;9.90;;
1262;SDS011;62267;50.112;8.704;2022-08-19T13:21:52;11.73;;;10.70;;
1262;SDS011;62267;50.112;8.704;2022-08-19T13:24:44;11.70;;;10.50;;
1262;SDS011;62267;50.112;8.704;2022-08-19T13:27:31;10.73;;;9.63;;
1262;SDS011;62267;50.112;8.704;2022-08-19T13:30:18;11.10;;;10.10;;
1262;SDS011;62267;50.112;8.704;2022-08-19T13:33:22;9.47;;;8.60;;
1262;SDS011;62267;50.112;8.704;2022-08-19T13:36:10;10.10;;;9.20;;
1262;SDS011;62267;50.112;8.704;2022-08-19T13:38:56;9.90;;;9.00;;
1262;SDS011;62267;50.112;8.704;2022-08-19T13:41:44;8.93;;;8.20;;
1262;SDS011;62267;50.112;8.704;2022-08-19T13:44:53;9.40;;;8.50;;
1262;SDS011;62267;50.112;8.704;2022-08-19T13:47:39;10.40;;;9.37;;
1262;SDS011;62267;50.112;8.704;2022-08-19T13:50:29;9.47;;;8.70;;
1262;SDS011;62267;50.112;8.704;2022-08-19T13:53:16;9.53;;;8.73;;
1262;SDS011;62267;50.112;8.704;2022-08-19T13:56:04;9.13;;;8.43;;
1262;SDS011;62267;50.112;8.704;2022-08-19T13:58:50;9.10;;;8.40;;
1262;SDS011;62267;50.112;8.704;2022-08-19T14:01:35;9.90;;;8.90;;
1262;SDS011;62267;50.112;8.704;2022-08-19T14:04:22;9.10;;;7.80;;
1262;SDS011;62267;50.112;8.704;2022-08-19T14:07:08;8.57;;;7.97;;
1262;SDS011;62267;50.112;8.704;2022-08-19T14:09:55;9.80;;;9.00;;
1262;SDS011;62267;50.112;8.704;2022-08-19T14:12:41;8.83;;;7.90;;
1262;SDS011;62267;50.112;8.704;2022-08-19T14:15:27;7.60;;;7.00;;
1262;SDS011;62267;50.112;8.704;2022-08-19T14:18:13;8.80;;;8.10;;
1262;SDS011;62267;50.112;8.704;2022-08-19T14:21:00;9.17;;;8.37;;
1262;SDS011;62267;50.112;8.704;2022-08-19T14:23:46;7.93;;;7.33;;
1262;SDS011;62267;50.112;8.704;2022-08-19T14:26:31;8.33;;;7.73;;
1262;SDS011;62267;50.112;8.704;2022-08-19T14:29:17;9.00;;;8.23;;
1262;SDS011;62267;50.112;8.704;2022-08-19T14:32:03;7.50;;;7.00;;
1262;SDS011;62267;50.112;8.704;2022-08-19T14:34:48;8.13;;;7.43;;
1262;SDS011;62267;50.112;8.704;2022-08-19T14:37:34;7.90;;;7.20;;
1262;SDS011;62267;50.112;8.704;2022-08-19T14:40:30;7.63;;;6.90;;
1262;SDS011;62267;50.112;8.704;2022-08-19T14:43:16;8.80;;;8.10;;
1262;SDS011;62267;50.112;8.704;2022-08-19T14:46:02;8.10;;;7.50;;
1262;SDS011;62267;50.112;8.704;2022-08-19T14:48:48;8.20;;;7.60;;
1262;SDS011;62267;50.112;8.704;2022-08-19T14:51:36;8.80;;;8.00;;
1262;SDS011;62267;50.112;8.704;2022-08-19T14:54:22;8.30;;;7.67;;
1262;SDS011;62267;50.112;8.704;2022-08-19T14:57:11;8.13;;;7.60;;
1262;SDS011;62267;50.112;8.704;2022-08-19T14:59:58;8.30;;;7.67;;
1262;SDS011;62267;50.112;8.704;2022-08-19T15:02:44;7.63;;;7.03;;
1262;SDS011;62267;50.112;8.704;2022-08-19T15:05:30;8.03;;;7.37;;
1262;SDS011;62267;50.112;8.704;2022-08-19T15:08:16;8.17;;;7.47;;
1262;SDS011;62267;50.112;8.704;2022-08-19T15:11:02;7.47;;;6.97;;
1262;SDS011;62267;50.112;8.704;2022-08-19T15:13:48;7.90;;;7.40;;
1262;SDS011;62267;50.112;8.704;2022-08-19T15:16:35;8.27;;;7.47;;
1262;SDS011;62267;50.112;8.704;2022-08-19T15:19:22;7.47;;;6.97;;
1262;SDS011;62267;50.112;8.704;2022-08-19T15:22:08;8.40;;;7.60;;
1262;SDS011;62267;50.112;8.704;2022-08-19T15:24:54;10.87;;;7.47;;
1262;SDS011;62267;50.112;8.704;2022-08-19T15:27:41;7.70;;;7.20;;
1262;SDS011;62267;50.112;8.704;2022-08-19T15:30:27;7.37;;;6.87;;
1262;SDS011;62267;50.112;8.704;2022-08-19T15:33:14;6.80;;;6.30;;
1262;SDS011;62267;50.112;8.704;2022-08-19T15:36:00;7.63;;;7.13;;
1262;SDS011;62267;50.112;8.704;2022-08-19T15:38:46;6.83;;;6.33;;
1262;SDS011;62267;50.112;8.704;2022-08-19T15:41:32;7.70;;;7.20;;
1262;SDS011;62267;50.112;8.704;2022-08-19T15:44:20;7.90;;;7.17;;
1262;SDS011;62267;50.112;8.704;2022-08-19T15:47:06;8.30;;;7.70;;
1262;SDS011;62267;50.112;8.704;2022-08-19T15:49:52;7.00;;;6.60;;
1262;SDS011;62267;50.112;8.704;2022-08-19T15:52:51;7.50;;;7.00;;
1262;SDS011;62267;50.112;8.704;2022-08-19T15:55:41;7.07;;;6.57;;
1262;SDS011;62267;50.112;8.704;2022-08-19T15:58:27;7.23;;;6.60;;
1262;SDS011;62267;50.112;8.704;2022-08-19T16:01:32;7.47;;;6.77;;
1262;SDS011;62267;50.112;8.704;2022-08-19T16:04:36;7.60;;;7.03;;
1262;SDS011;62267;50.112;8.704;2022-08-19T16:07:42;6.83;;;6.40;;
1262;SDS011;62267;50.112;8.704;2022-08-19T16:10:29;6.80;;;6.40;;
1262;SDS011;62267;50.112;8.704;2022-08-19T16:13:22;7.10;;;6.60;;
1262;SDS011;62267;50.112;8.704;2022-08-19T16:16:08;7.87;;;7.17;;
1262;SDS011;62267;50.112;8.704;2022-08-19T16:18:57;6.23;;;5.73;;
1262;SDS011;62267;50.112;8.704;2022-08-19T16:21:45;7.70;;;7.10;;
1262;SDS011;62267;50.112;8.704;2022-08-19T16:24:31;6.57;;;6.10;;
1262;SDS011;62267;50.112;8.704;2022-08-19T16:27:20;7.27;;;6.57;;
1262;SDS011;62267;50.112;8.704;2022-08-19T16:30:07;6.93;;;6.43;;
1262;SDS011;62267;50.112;8.704;2022-08-19T16:32:53;7.37;;;6.87;;
1262;SDS011;62267;50.112;8.704;2022-08-19T16:35:39;8.23;;;7.53;;
1262;SDS011;62267;50.112;8.704;2022-08-19T16:38:25;8.00;;;7.50;;
1262;SDS011;62267;50.112;8.704;2022-08-19T16:41:11;7.10;;;6.60;;
1262;SDS011;62267;50.112;8.704;2022-08-19T16:44:00;8.20;;;7.50;;
1262;SDS011;62267;50.112;8.704;2022-08-19T16:46:46;8.10;;;7.30;;
1262;SDS011;62267;50.112;8.704;2022-08-19T16:49:42;15.73;;;10.13;;
1262;SDS011;62267;50.112;8.704;2022-08-19T16:52:38;7.50;;;7.00;;
1262;SDS011;62267;50.112;8.704;2022-08-19T16:55:24;7.67;;;7.07;;
1262;SDS011;62267;50.112;8.704;2022-08-19T16:58:11;8.30;;;7.60;;
1262;SDS011;62267;50.112;8.704;2022-08-19T17:00:57;7.70;;;7.10;;
1262;SDS011;62267;50.112;8.704;2022-08-19T17:03:47;8.17;;;7.43;;
1262;SDS011;62267;50.112;8.704;2022-08-19T17:06:36;7.10;;;6.60;;
1262;SDS011;62267;50.112;8.704;2022-08-19T17:09:23;6.90;;;6.43;;
1262;SDS011;62267;50.112;8.704;2022-08-19T17:12:10;7.83;;;7.23;;
1262;SDS011;62267;50.112;8.704;2022-08-19T17:14:56;8.10;;;7.50;;
1262;SDS011;62267;50.112;8.704;2022-08-19T17:17:42;8.00;;;7.40;;
1262;SDS011;62267;50.112;8.704;2022-08-19T17:20:28;8.30;;;7.50;;
1262;SDS011;62267;50.112;8.704;2022-08-19T17:23:15;8.30;;;7.60;;
1262;SDS011;62267;50.112;8.704;2022-08-19T17:26:01;7.50;;;6.90;;
1262;SDS011;62267;50.112;8.704;2022-08-19T17:28:48;8.23;;;7.63;;
1262;SDS011;62267;50.112;8.704;2022-08-19T17:31:34;8.40;;;7.80;;
1262;SDS011;62267;50.112;8.704;2022-08-19T17:34:20;9.00;;;8.30;;
1262;SDS011;62267;50.112;8.704;2022-08-19T17:37:06;8.23;;;7.43;;
1262;SDS011;62267;50.112;8.704;2022-08-19T17:39:52;8.97;;;8.27;;
1262;SDS011;62267;50.112;8.704;2022-08-19T17:42:38;7.93;;;7.33;;
1262;SDS011;62267;50.112;8.704;2022-08-19T17:45:25;7.73;;;7.13;;
1262;SDS011;62267;50.112;8.704;2022-08-19T17:48:11;8.67;;;7.87;;
1262;SDS011;62267;50.112;8.704;2022-08-19T17:50:57;8.50;;;7.80;;
1262;SDS011;62267;50.112;8.704;2022-08-19T17:53:44;9.60;;;8.67;;
1262;SDS011;62267;50.112;8.704;2022-08-19T17:56:30;7.63;;;7.00;;
1262;SDS011;62267;50.112;8.704;2022-08-19T17:59:16;9.70;;;8.90;;
1262;SDS011;62267;50.112;8.704;2022-08-19T18:02:03;8.83;;;8.13;;
1262;SDS011;62267;50.112;8.704;2022-08-19T18:04:49;10.00;;;9.20;;
1262;SDS011;62267;50.112;8.704;2022-08-19T18:07:34;12.20;;;11.03;;
1262;SDS011;62267;50.112;8.704;2022-08-19T18:10:20;10.30;;;9.50;;
1262;SDS011;62267;50.112;8.704;2022-08-19T18:13:16;11.47;;;10.37;;
1262;SDS011;62267;50.112;8.704;2022-08-19T18:16:03;14.97;;;11.27;;
1262;SDS011;62267;50.112;8.704;2022-08-19T18:18:54;10.90;;;10.00;;
1262;SDS011;62267;50.112;8.704;2022-08-19T18:21:40;11.57;;;10.67;;
1262;SDS011;62267;50.112;8.704;2022-08-19T18:24:25;11.03;;;10.13;;
1262;SDS011;62267;50.112;8.704;2022-08-19T18:27:11;12.17;;;11.10;;
1262;SDS011;62267;50.112;8.704;2022-08-19T18:29:57;11.73;;;10.87;;
1262;SDS011;62267;50.112;8.704;2022-08-19T18:32:43;11.77;;;10.83;;
1262;SDS011;62267;50.112;8.704;2022-08-19T18:35:33;11.27;;;10.27;;
1262;SDS011;62267;50.112;8.704;2022-08-19T18:38:22;12.17;;;10.97;;
1262;SDS011;62267;50.112;8.704;2022-08-19T18:41:27;10.63;;;9.83;;
1262;SDS011;62267;50.112;8.704;2022-08-19T18:44:33;12.03;;;11.03;;
1262;SDS011;62267;50.112;8.704;2022-08-19T18:47:43;12.00;;;10.90;;
1262;SDS011;62267;50.112;8.704;2022-08-19T18:51:08;11.57;;;10.67;;
1262;SDS011;62267;50.112;8.704;2022-08-19T18:53:54;12.73;;;11.50;;
1262;SDS011;62267;50.112;8.704;2022-08-19T18:56:42;10.67;;;9.80;;
1262;SDS011;62267;50.112;8.704;2022-08-19T18:59:31;11.50;;;10.60;;
1262;SDS011;62267;50.112;8.704;2022-08-19T19:02:17;14.90;;;13.40;;
1262;SDS011;62267;50.112;8.704;2022-08-19T19:05:03;11.63;;;10.53;;
1262;SDS011;62267;50.112;8.704;2022-08-19T19:07:51;11.83;;;10.83;;
1262;SDS011;62267;50.112;8.704;2022-08-19T19:10:40;11.60;;;10.60;;
1262;SDS011;62267;50.112;8.704;2022-08-19T19:13:27;10.30;;;9.53;;
1262;SDS011;62267;50.112;8.704;2022-08-19T19:16:13;11.87;;;10.83;;
1262;SDS011;62267;50.112;8.704;2022-08-19T19:18:59;12.20;;;11.27;;
1262;SDS011;62267;50.112;8.704;2022-08-19T19:21:46;13.20;;;12.00;;
1262;SDS011;62267;50.112;8.704;2022-08-19T19:24:33;14.43;;;11.10;;
1262;SDS011;62267;50.112;8.704;2022-08-19T19:27:21;10.47;;;9.47;;
1262;SDS011;62267;50.112;8.704;2022-08-19T19:30:07;10.50;;;9.70;;
1262;SDS011;62267;50.112;8.704;2022-08-19T19:32:53;11.17;;;10.20;;
1262;SDS011;62267;50.112;8.704;2022-08-19T19:35:40;11.03;;;10.10;;
1262;SDS011;62267;50.112;8.704;2022-08-19T19:38:31;9.93;;;9.03;;
1262;SDS011;62267;50.112;8.704;2022-08-19T19:41:20;11.03;;;10.03;;
1262;SDS011;62267;50.112;8.704;2022-08-19T19:44:07;11.97;;;10.70;;
1262;SDS011;62267;50.112;8.704;2022-08-19T19:47:14;10.33;;;9.33;;
1262;SDS011;62267;50.112;8.704;2022-08-19T19:50:02;12.90;;;11.87;;
1262;SDS011;62267;50.112;8.704;2022-08-19T19:52:59;10.73;;;9.73;;
1262;SDS011;62267;50.112;8.704;2022-08-19T19:55:45;10.63;;;9.73;;
1262;SDS011;62267;50.112;8.704;2022-08-19T19:58:32;11.40;;;10.20;;
1262;SDS011;62267;50.112;8.704;2022-08-19T20:01:20;11.23;;;10.33;;
1262;SDS011;62267;50.112;8.704;2022-08-19T20:04:19;12.17;;;11.07;;
1262;SDS011;62267;50.112;8.704;2022-08-19T20:07:05;11.57;;;10.50;;
1262;SDS011;62267;50.112;8.704;2022-08-19T20:09:51;10.90;;;9.90;;
1262;SDS011;62267;50.112;8.704;2022-08-19T20:12:44;15.10;;;11.07;;
1262;SDS011;62267;50.112;8.704;2022-08-19T20:15:30;10.90;;;9.90;;
1262;SDS011;62267;50.112;8.704;2022-08-19T20:18:16;12.97;;;9.43;;
1262;SDS011;62267;50.112;8.704;2022-08-19T20:21:02;11.07;;;9.90;;
1262;SDS011;62267;50.112;8.704;2022-08-19T20:23:47;10.83;;;9.77;;
1262;SDS011;62267;50.112;8.704;2022-08-19T20:26:53;10.40;;;9.37;;
1262;SDS011;62267;50.112;8.704;2022-08-19T20:29:39;10.60;;;9.50;;
1262;SDS011;62267;50.112;8.704;2022-08-19T20:32:28;10.93;;;9.83;;
1262;SDS011;62267;50.112;8.704;2022-08-19T20:35:16;10.20;;;9.10;;
1262;SDS011;62267;50.112;8.704;2022-08-19T20:38:03;10.53;;;9.37;;
1262;SDS011;62267;50.112;8.704;2022-08-19T20:40:52;11.93;;;10.33;;
1262;SDS011;62267;50.112;8.704;2022-08-19T20:43:38;11.13;;;9.23;;
1262;SDS011;62267;50.112;8.704;2022-08-19T20:46:24;12.10;;;9.93;;
1262;SDS011;62267;50.112;8.704;2022-08-19T20:49:12;9.47;;;8.67;;
1262;SDS011;62267;50.112;8.704;2022-08-19T20:51:58;10.17;;;9.30;;
1262;SDS011;62267;50.112;8.704;2022-08-19T20:54:44;11.43;;;9.40;;
1262;SDS011;62267;50.112;8.704;2022-08-19T20:57:30;9.70;;;8.90;;
1262;SDS011;62267;50.112;8.704;2022-08-19T21:00:16;11.13;;;10.03;;
1262;SDS011;62267;50.112;8.704;2022-08-19T21:03:04;10.40;;;9.30;;
1262;SDS011;62267;50.112;8.704;2022-08-19T21:05:50;9.43;;;8.53;;
1262;SDS011;62267;50.112;8.704;2022-08-19T21:08:36;10.17;;;9.27;;
1262;SDS011;62267;50.112;8.704;2022-08-19T21:11:23;9.73;;;8.80;;
1262;SDS011;62267;50.112;8.704;2022-08-19T21:14:09;9.37;;;8.47;;
1262;SDS011;62267;50.112;8.704;2022-08-19T21:16:55;10.37;;;8.27;;
1262;SDS011;62267;50.112;8.704;2022-08-19T21:19:40;8.10;;;7.37;;
1262;SDS011;62267;50.112;8.704;2022-08-19T21:22:26;8.23;;;7.53;;
1262;SDS011;62267;50.112;8.704;2022-08-19T21:25:12;8.73;;;7.93;;
1262;SDS011;62267;50.112;8.704;2022-08-19T21:28:00;11.07;;;7.80;;
1262;SDS011;62267;50.112;8.704;2022-08-19T21:30:45;9.40;;;8.57;;
1262;SDS011;62267;50.112;8.704;2022-08-19T21:33:31;8.20;;;7.40;;
1262;SDS011;62267;50.112;8.704;2022-08-19T21:36:17;8.63;;;7.80;;
1262;SDS011;62267;50.112;8.704;2022-08-19T21:39:03;9.67;;;8.77;;
1262;SDS011;62267;50.112;8.704;2022-08-19T21:41:49;8.33;;;7.47;;
1262;SDS011;62267;50.112;8.704;2022-08-19T21:44:35;9.87;;;7.67;;
1262;SDS011;62267;50.112;8.704;2022-08-19T21:47:21;9.50;;;8.13;;
1262;SDS011;62267;50.112;8.704;2022-08-19T21:50:07;8.10;;;7.30;;
1262;SDS011;62267;50.112;8.704;2022-08-19T21:52:53;7.93;;;7.20;;
1262;SDS011;62267;50.112;8.704;2022-08-19T21:55:39;10.03;;;8.30;;
1262;SDS011;62267;50.112;8.704;2022-08-19T21:58:25;7.80;;;7.07;;
1262;SDS011;62267;50.112;8.704;2022-08-19T22:01:14;10.10;;;7.53;;
1262;SDS011;62267;50.112;8.704;2022-08-19T22:04:00;7.60;;;6.90;;
1262;SDS011;62267;50.112;8.704;2022-08-19T22:06:46;8.10;;;7.40;;
1262;SDS011;62267;50.112;8.704;2022-08-19T22:09:32;8.43;;;7.73;;
1262;SDS011;62267;50.112;8.704;2022-08-19T22:12:22;7.90;;;7.20;;
1262;SDS011;62267;50.112;8.704;2022-08-19T22:15:09;7.10;;;6.50;;
1262;SDS011;62267;50.112;8.704;2022-08-19T22:17:55;7.83;;;7.03;;
1262;SDS011;62267;50.112;8.704;2022-08-19T22:20:42;8.53;;;7.70;;
1262;SDS011;62267;50.112;8.704;2022-08-19T22:23:29;11.73;;;8.10;;
1262;SDS011;62267;50.112;8.704;2022-08-19T22:26:15;8.00;;;7.23;;
1262;SDS011;62267;50.112;8.704;2022-08-19T22:29:02;7.93;;;7.23;;
1262;SDS011;62267;50.112;8.704;2022-08-19T22:31:48;7.07;;;6.47;;
1262;SDS011;62267;50.112;8.704;2022-08-19T22:34:43;7.50;;;6.30;;
1262;SDS011;62267;50.112;8.704;2022-08-19T22:37:29;7.53;;;6.83;;
1262;SDS011;62267;50.112;8.704;2022-08-19T22:40:15;7.17;;;6.47;;
1262;SDS011;62267;50.112;8.704;2022-08-19T22:43:03;6.43;;;5.93;;
1262;SDS011;62267;50.112;8.704;2022-08-19T22:45:50;8.10;;;6.90;;
1262;SDS011;62267;50.112;8.704;2022-08-19T22:48:36;6.77;;;6.10;;
1262;SDS011;62267;50.112;8.704;2022-08-19T22:51:22;12.23;;;6.40;;
1262;SDS011;62267;50.112;8.704;2022-08-19T22:54:27;6.90;;;6.20;;
1262;SDS011;62267;50.112;8.704;2022-08-19T22:57:13;6.47;;;5.87;;
1262;SDS011;62267;50.112;8.704;2022-08-19T23:00:00;6.40;;;5.80;;
1262;SDS011;62267;50.112;8.704;2022-08-19T23:02:46;9.00;;;5.77;;
1262;SDS011;62267;50.112;8.704;2022-08-19T23:05:38;5.33;;;4.83;;
1262;SDS011;62267;50.112;8.704;2022-08-19T23:08:24;6.13;;;5.50;;
1262;SDS011;62267;50.112;8.704;2022-08-19T23:11:10;6.13;;;5.63;;
1262;SDS011;62267;50.112;8.704;2022-08-19T23:13:56;10.63;;;6.07;;
1262;SDS011;62267;50.112;8.704;2022-08-19T23:16:42;6.83;;;5.53;;
1262;SDS011;62267;50.112;8.704;2022-08-19T23:19:35;7.50;;;6.13;;
1262;SDS011;62267;50.112;8.704;2022-08-19T23:22:22;5.90;;;5.40;;
1262;SDS011;62267;50.112;8.704;2022-08-19T23:25:12;6.40;;;5.90;;
1262;SDS011;62267;50.112;8.704;2022-08-19T23:27:58;6.57;;;5.93;;
1262;SDS011;62267;50.112;8.704;2022-08-19T23:31:03;6.07;;;5.60;;